sensor_id;sensor_type;location;lat;lon;timestamp;P1;durP1;ratioP1;P2;durP2;ratioP2
57635;SDS011;43465;50.728;4.160;2023-04-09T00:01:49;67.38;;;49.97;;
57635;SDS011;43465;50.728;4.160;2023-04-09T00:04:15;70.95;;;50.15;;
57635;SDS011;43465;50.728;4.160;2023-04-09T00:06:40;65.75;;;49.53;;
57635;SDS011;43465;50.728;4.160;2023-04-09T00:09:06;63.63;;;46.47;;
57635;SDS011;43465;50.728;4.160;2023-04-09T00:11:32;60.13;;;45.28;;
57635;SDS011;43465;50.728;4.160;2023-04-09T00:13:57;61.00;;;44.47;;
57635;SDS011;43465;50.728;4.160;2023-04-09T00:16:23;61.97;;;44.63;;
57635;SDS011;43465;50.728;4.160;2023-04-09T00:18:49;66.85;;;47.28;;
57635;SDS011;43465;50.728;4.160;2023-04-09T00:21:14;64.20;;;46.72;;
57635;SDS011;43465;50.728;4.160;2023-04-09T00:23:40;77.15;;;59.25;;
57635;SDS011;43465;50.728;4.160;2023-04-09T00:26:06;82.25;;;64.90;;
57635;SDS011;43465;50.728;4.160;2023-04-09T00:28:32;71.35;;;53.50;;
57635;SDS011;43465;50.728;4.160;2023-04-09T00:30:58;71.82;;;50.95;;
57635;SDS011;43465;50.728;4.160;2023-04-09T00:33:24;64.60;;;48.70;;
57635;SDS011;43465;50.728;4.160;2023-04-09T00:35:50;67.10;;;46.58;;
57635;SDS011;43465;50.728;4.160;2023-04-09T00:38:16;64.75;;;46.88;;
57635;SDS011;43465;50.728;4.160;2023-04-09T00:40:42;60.55;;;44.42;;
57635;SDS011;43465;50.728;4.160;2023-04-09T00:43:08;61.83;;;44.35;;
57635;SDS011;43465;50.728;4.160;2023-04-09T00:45:34;57.45;;;42.67;;
57635;SDS011;43465;50.728;4.160;2023-04-09T00:48:00;59.35;;;43.28;;
57635;SDS011;43465;50.728;4.160;2023-04-09T00:50:26;60.85;;;43.72;;
57635;SDS011;43465;50.728;4.160;2023-04-09T00:52:51;58.22;;;42.00;;
57635;SDS011;43465;50.728;4.160;2023-04-09T00:55:17;60.13;;;43.90;;
57635;SDS011;43465;50.728;4.160;2023-04-09T00:57:45;56.45;;;42.55;;
57635;SDS011;43465;50.728;4.160;2023-04-09T01:00:11;58.53;;;42.53;;
57635;SDS011;43465;50.728;4.160;2023-04-09T01:02:37;58.20;;;42.58;;
57635;SDS011;43465;50.728;4.160;2023-04-09T01:05:03;55.17;;;41.15;;
57635;SDS011;43465;50.728;4.160;2023-04-09T01:12:46;55.95;;;40.72;;
57635;SDS011;43465;50.728;4.160;2023-04-09T01:15:54;55.50;;;40.60;;
57635;SDS011;43465;50.728;4.160;2023-04-09T01:20:57;52.58;;;39.67;;
57635;SDS011;43465;50.728;4.160;2023-04-09T01:23:28;51.15;;;39.35;;
57635;SDS011;43465;50.728;4.160;2023-04-09T01:28:58;53.67;;;38.30;;
57635;SDS011;43465;50.728;4.160;2023-04-09T01:31:28;49.72;;;38.47;;
57635;SDS011;43465;50.728;4.160;2023-04-09T01:33:56;51.50;;;37.88;;
57635;SDS011;43465;50.728;4.160;2023-04-09T01:36:24;50.53;;;37.83;;
57635;SDS011;43465;50.728;4.160;2023-04-09T01:38:52;48.47;;;37.42;;
57635;SDS011;43465;50.728;4.160;2023-04-09T01:41:20;48.20;;;35.65;;
57635;SDS011;43465;50.728;4.160;2023-04-09T01:43:47;46.75;;;34.67;;
57635;SDS011;43465;50.728;4.160;2023-04-09T01:46:15;42.67;;;33.15;;
57635;SDS011;43465;50.728;4.160;2023-04-09T01:48:42;44.55;;;33.55;;
57635;SDS011;43465;50.728;4.160;2023-04-09T01:51:08;43.28;;;32.28;;
57635;SDS011;43465;50.728;4.160;2023-04-09T01:53:38;40.65;;;31.58;;
57635;SDS011;43465;50.728;4.160;2023-04-09T01:56:05;40.50;;;31.65;;
57635;SDS011;43465;50.728;4.160;2023-04-09T01:58:32;38.20;;;30.75;;
57635;SDS011;43465;50.728;4.160;2023-04-09T02:01:04;41.35;;;31.23;;
57635;SDS011;43465;50.728;4.160;2023-04-09T02:03:34;40.13;;;30.77;;
57635;SDS011;43465;50.728;4.160;2023-04-09T02:06:24;40.85;;;32.22;;
57635;SDS011;43465;50.728;4.160;2023-04-09T02:09:11;42.30;;;31.42;;
57635;SDS011;43465;50.728;4.160;2023-04-09T02:11:38;39.55;;;30.25;;
57635;SDS011;43465;50.728;4.160;2023-04-09T02:14:06;41.78;;;30.88;;
57635;SDS011;43465;50.728;4.160;2023-04-09T02:16:33;40.97;;;30.60;;
57635;SDS011;43465;50.728;4.160;2023-04-09T02:19:00;41.65;;;32.17;;
57635;SDS011;43465;50.728;4.160;2023-04-09T02:21:26;43.58;;;32.58;;
57635;SDS011;43465;50.728;4.160;2023-04-09T02:23:53;42.00;;;31.85;;
57635;SDS011;43465;50.728;4.160;2023-04-09T02:26:22;43.30;;;32.58;;
57635;SDS011;43465;50.728;4.160;2023-04-09T02:28:48;41.45;;;31.38;;
57635;SDS011;43465;50.728;4.160;2023-04-09T02:31:14;40.00;;;30.88;;
57635;SDS011;43465;50.728;4.160;2023-04-09T02:33:40;39.40;;;31.17;;
57635;SDS011;43465;50.728;4.160;2023-04-09T02:36:09;40.72;;;30.58;;
57635;SDS011;43465;50.728;4.160;2023-04-09T02:38:36;40.80;;;31.80;;
57635;SDS011;43465;50.728;4.160;2023-04-09T02:41:04;44.28;;;32.60;;
57635;SDS011;43465;50.728;4.160;2023-04-09T02:43:29;43.10;;;30.65;;
57635;SDS011;43465;50.728;4.160;2023-04-09T02:45:55;41.35;;;30.42;;
57635;SDS011;43465;50.728;4.160;2023-04-09T02:48:21;81.78;;;45.22;;
57635;SDS011;43465;50.728;4.160;2023-04-09T02:50:46;85.30;;;48.85;;
57635;SDS011;43465;50.728;4.160;2023-04-09T02:53:12;54.55;;;35.92;;
57635;SDS011;43465;50.728;4.160;2023-04-09T02:55:38;45.53;;;34.05;;
57635;SDS011;43465;50.728;4.160;2023-04-09T02:58:03;47.17;;;32.85;;
57635;SDS011;43465;50.728;4.160;2023-04-09T03:00:29;48.30;;;34.55;;
57635;SDS011;43465;50.728;4.160;2023-04-09T03:02:55;53.95;;;36.22;;
57635;SDS011;43465;50.728;4.160;2023-04-09T03:05:21;59.28;;;37.95;;
57635;SDS011;43465;50.728;4.160;2023-04-09T03:07:47;59.97;;;40.80;;
57635;SDS011;43465;50.728;4.160;2023-04-09T03:10:13;65.28;;;43.80;;
57635;SDS011;43465;50.728;4.160;2023-04-09T03:12:39;67.72;;;43.90;;
57635;SDS011;43465;50.728;4.160;2023-04-09T03:15:05;69.90;;;46.75;;
57635;SDS011;43465;50.728;4.160;2023-04-09T03:17:31;59.58;;;43.45;;
57635;SDS011;43465;50.728;4.160;2023-04-09T03:19:57;64.32;;;44.42;;
57635;SDS011;43465;50.728;4.160;2023-04-09T03:22:23;68.97;;;46.72;;
57635;SDS011;43465;50.728;4.160;2023-04-09T03:24:48;62.85;;;44.63;;
57635;SDS011;43465;50.728;4.160;2023-04-09T03:27:14;56.50;;;39.22;;
57635;SDS011;43465;50.728;4.160;2023-04-09T03:29:40;49.97;;;36.22;;
57635;SDS011;43465;50.728;4.160;2023-04-09T03:32:06;50.90;;;36.10;;
57635;SDS011;43465;50.728;4.160;2023-04-09T03:34:31;54.10;;;37.17;;
57635;SDS011;43465;50.728;4.160;2023-04-09T03:36:57;51.05;;;35.20;;
57635;SDS011;43465;50.728;4.160;2023-04-09T03:39:22;50.45;;;36.42;;
57635;SDS011;43465;50.728;4.160;2023-04-09T03:41:48;52.63;;;36.70;;
57635;SDS011;43465;50.728;4.160;2023-04-09T03:44:14;51.58;;;35.92;;
57635;SDS011;43465;50.728;4.160;2023-04-09T03:46:39;54.55;;;37.55;;
57635;SDS011;43465;50.728;4.160;2023-04-09T03:49:05;54.28;;;38.42;;
57635;SDS011;43465;50.728;4.160;2023-04-09T03:51:31;58.17;;;38.97;;
57635;SDS011;43465;50.728;4.160;2023-04-09T03:53:57;58.72;;;38.75;;
57635;SDS011;43465;50.728;4.160;2023-04-09T03:56:22;57.72;;;37.95;;
57635;SDS011;43465;50.728;4.160;2023-04-09T03:58:48;54.95;;;39.05;;
57635;SDS011;43465;50.728;4.160;2023-04-09T04:01:14;55.50;;;38.08;;
57635;SDS011;43465;50.728;4.160;2023-04-09T04:03:39;57.03;;;38.80;;
57635;SDS011;43465;50.728;4.160;2023-04-09T04:06:05;59.88;;;40.30;;
57635;SDS011;43465;50.728;4.160;2023-04-09T04:08:31;56.28;;;37.92;;
57635;SDS011;43465;50.728;4.160;2023-04-09T04:11:01;57.40;;;39.42;;
57635;SDS011;43465;50.728;4.160;2023-04-09T04:13:28;57.65;;;39.30;;
57635;SDS011;43465;50.728;4.160;2023-04-09T04:15:54;59.22;;;39.42;;
57635;SDS011;43465;50.728;4.160;2023-04-09T04:18:19;56.47;;;39.25;;
57635;SDS011;43465;50.728;4.160;2023-04-09T04:20:45;59.08;;;40.40;;
57635;SDS011;43465;50.728;4.160;2023-04-09T04:23:11;58.85;;;39.20;;
57635;SDS011;43465;50.728;4.160;2023-04-09T04:25:39;60.17;;;40.60;;
57635;SDS011;43465;50.728;4.160;2023-04-09T04:28:05;60.15;;;39.08;;
57635;SDS011;43465;50.728;4.160;2023-04-09T04:30:31;60.28;;;40.08;;
57635;SDS011;43465;50.728;4.160;2023-04-09T04:32:57;59.13;;;40.25;;
57635;SDS011;43465;50.728;4.160;2023-04-09T04:35:23;59.42;;;39.35;;
57635;SDS011;43465;50.728;4.160;2023-04-09T04:37:49;61.17;;;40.33;;
57635;SDS011;43465;50.728;4.160;2023-04-09T04:40:17;63.63;;;41.78;;
57635;SDS011;43465;50.728;4.160;2023-04-09T04:42:43;56.30;;;38.85;;
57635;SDS011;43465;50.728;4.160;2023-04-09T04:45:08;60.08;;;40.80;;
57635;SDS011;43465;50.728;4.160;2023-04-09T04:47:34;58.80;;;39.40;;
57635;SDS011;43465;50.728;4.160;2023-04-09T04:50:00;59.17;;;38.33;;
57635;SDS011;43465;50.728;4.160;2023-04-09T04:52:25;57.28;;;40.10;;
57635;SDS011;43465;50.728;4.160;2023-04-09T04:54:51;58.90;;;38.97;;
57635;SDS011;43465;50.728;4.160;2023-04-09T04:57:17;58.28;;;40.67;;
57635;SDS011;43465;50.728;4.160;2023-04-09T04:59:42;58.05;;;39.97;;
57635;SDS011;43465;50.728;4.160;2023-04-09T05:02:08;60.22;;;40.15;;
57635;SDS011;43465;50.728;4.160;2023-04-09T05:04:34;60.33;;;41.90;;
57635;SDS011;43465;50.728;4.160;2023-04-09T05:06:59;60.83;;;39.58;;
57635;SDS011;43465;50.728;4.160;2023-04-09T05:09:25;63.30;;;41.45;;
57635;SDS011;43465;50.728;4.160;2023-04-09T05:11:51;59.13;;;39.70;;
57635;SDS011;43465;50.728;4.160;2023-04-09T05:14:16;56.42;;;39.45;;
57635;SDS011;43465;50.728;4.160;2023-04-09T05:16:42;61.10;;;39.42;;
57635;SDS011;43465;50.728;4.160;2023-04-09T05:19:08;60.47;;;41.05;;
57635;SDS011;43465;50.728;4.160;2023-04-09T05:21:34;55.08;;;38.08;;
57635;SDS011;43465;50.728;4.160;2023-04-09T05:24:00;59.42;;;40.22;;
57635;SDS011;43465;50.728;4.160;2023-04-09T05:26:25;59.15;;;39.25;;
57635;SDS011;43465;50.728;4.160;2023-04-09T05:28:51;56.30;;;38.45;;
57635;SDS011;43465;50.728;4.160;2023-04-09T05:31:17;55.58;;;38.58;;
57635;SDS011;43465;50.728;4.160;2023-04-09T05:33:43;57.75;;;38.17;;
57635;SDS011;43465;50.728;4.160;2023-04-09T05:36:13;58.08;;;39.38;;
57635;SDS011;43465;50.728;4.160;2023-04-09T05:38:43;60.03;;;40.80;;
57635;SDS011;43465;50.728;4.160;2023-04-09T05:41:10;58.40;;;39.00;;
57635;SDS011;43465;50.728;4.160;2023-04-09T05:43:36;55.88;;;38.92;;
57635;SDS011;43465;50.728;4.160;2023-04-09T05:46:02;58.25;;;38.83;;
57635;SDS011;43465;50.728;4.160;2023-04-09T05:48:28;59.72;;;39.85;;
57635;SDS011;43465;50.728;4.160;2023-04-09T05:50:54;58.38;;;38.88;;
57635;SDS011;43465;50.728;4.160;2023-04-09T05:53:19;56.03;;;37.92;;
57635;SDS011;43465;50.728;4.160;2023-04-09T05:55:45;55.63;;;39.38;;
57635;SDS011;43465;50.728;4.160;2023-04-09T05:58:13;54.85;;;37.67;;
57635;SDS011;43465;50.728;4.160;2023-04-09T06:00:40;54.28;;;36.97;;
57635;SDS011;43465;50.728;4.160;2023-04-09T06:03:06;52.50;;;37.63;;
57635;SDS011;43465;50.728;4.160;2023-04-09T06:05:33;55.75;;;37.50;;
57635;SDS011;43465;50.728;4.160;2023-04-09T06:07:58;54.88;;;38.20;;
57635;SDS011;43465;50.728;4.160;2023-04-09T06:10:24;55.70;;;38.80;;
57635;SDS011;43465;50.728;4.160;2023-04-09T06:12:50;58.47;;;38.90;;
57635;SDS011;43465;50.728;4.160;2023-04-09T06:15:15;55.88;;;38.00;;
57635;SDS011;43465;50.728;4.160;2023-04-09T06:17:42;53.88;;;36.25;;
57635;SDS011;43465;50.728;4.160;2023-04-09T06:20:08;53.53;;;35.95;;
57635;SDS011;43465;50.728;4.160;2023-04-09T06:22:34;54.45;;;38.63;;
57635;SDS011;43465;50.728;4.160;2023-04-09T06:25:00;53.90;;;37.38;;
57635;SDS011;43465;50.728;4.160;2023-04-09T06:27:26;51.67;;;36.97;;
57635;SDS011;43465;50.728;4.160;2023-04-09T06:29:51;53.50;;;37.40;;
57635;SDS011;43465;50.728;4.160;2023-04-09T06:32:17;51.03;;;36.60;;
57635;SDS011;43465;50.728;4.160;2023-04-09T06:34:43;50.00;;;36.55;;
57635;SDS011;43465;50.728;4.160;2023-04-09T06:37:08;49.70;;;37.05;;
57635;SDS011;43465;50.728;4.160;2023-04-09T06:39:34;50.13;;;36.50;;
57635;SDS011;43465;50.728;4.160;2023-04-09T06:42:00;51.00;;;36.08;;
57635;SDS011;43465;50.728;4.160;2023-04-09T06:44:25;51.38;;;35.53;;
57635;SDS011;43465;50.728;4.160;2023-04-09T06:46:51;47.92;;;34.58;;
57635;SDS011;43465;50.728;4.160;2023-04-09T06:49:17;49.78;;;35.33;;
57635;SDS011;43465;50.728;4.160;2023-04-09T06:51:42;48.05;;;35.47;;
57635;SDS011;43465;50.728;4.160;2023-04-09T06:54:08;50.88;;;37.20;;
57635;SDS011;43465;50.728;4.160;2023-04-09T06:56:34;50.25;;;35.80;;
57635;SDS011;43465;50.728;4.160;2023-04-09T06:58:59;50.45;;;35.88;;
57635;SDS011;43465;50.728;4.160;2023-04-09T07:01:25;48.65;;;36.15;;
57635;SDS011;43465;50.728;4.160;2023-04-09T07:03:51;46.08;;;34.20;;
57635;SDS011;43465;50.728;4.160;2023-04-09T07:06:17;50.03;;;35.97;;
57635;SDS011;43465;50.728;4.160;2023-04-09T07:08:43;48.15;;;35.03;;
57635;SDS011;43465;50.728;4.160;2023-04-09T07:11:09;47.58;;;36.10;;
57635;SDS011;43465;50.728;4.160;2023-04-09T07:13:35;52.30;;;36.20;;
57635;SDS011;43465;50.728;4.160;2023-04-09T07:16:00;48.13;;;34.85;;
57635;SDS011;43465;50.728;4.160;2023-04-09T07:18:26;48.65;;;34.78;;
57635;SDS011;43465;50.728;4.160;2023-04-09T07:20:52;48.45;;;36.00;;
57635;SDS011;43465;50.728;4.160;2023-04-09T07:23:17;49.40;;;34.97;;
57635;SDS011;43465;50.728;4.160;2023-04-09T07:25:43;47.35;;;34.15;;
57635;SDS011;43465;50.728;4.160;2023-04-09T07:28:09;46.92;;;34.10;;
57635;SDS011;43465;50.728;4.160;2023-04-09T07:30:35;47.63;;;33.80;;
57635;SDS011;43465;50.728;4.160;2023-04-09T07:33:01;48.50;;;35.63;;
57635;SDS011;43465;50.728;4.160;2023-04-09T07:35:27;47.13;;;35.38;;
57635;SDS011;43465;50.728;4.160;2023-04-09T07:37:53;45.20;;;34.28;;
57635;SDS011;43465;50.728;4.160;2023-04-09T07:40:18;48.60;;;34.95;;
57635;SDS011;43465;50.728;4.160;2023-04-09T07:42:44;48.53;;;36.72;;
57635;SDS011;43465;50.728;4.160;2023-04-09T07:45:10;50.88;;;35.92;;
57635;SDS011;43465;50.728;4.160;2023-04-09T07:47:37;50.35;;;36.13;;
57635;SDS011;43465;50.728;4.160;2023-04-09T07:50:04;52.08;;;37.20;;
57635;SDS011;43465;50.728;4.160;2023-04-09T07:52:31;50.67;;;36.15;;
57635;SDS011;43465;50.728;4.160;2023-04-09T07:54:56;50.22;;;36.28;;
57635;SDS011;43465;50.728;4.160;2023-04-09T07:57:22;46.22;;;34.95;;
57635;SDS011;43465;50.728;4.160;2023-04-09T07:59:48;47.97;;;35.45;;
57635;SDS011;43465;50.728;4.160;2023-04-09T08:02:13;43.70;;;33.63;;
57635;SDS011;43465;50.728;4.160;2023-04-09T08:04:39;47.95;;;34.00;;
57635;SDS011;43465;50.728;4.160;2023-04-09T08:07:05;45.60;;;33.30;;
57635;SDS011;43465;50.728;4.160;2023-04-09T08:09:31;45.10;;;33.97;;
57635;SDS011;43465;50.728;4.160;2023-04-09T08:11:57;43.40;;;31.90;;
57635;SDS011;43465;50.728;4.160;2023-04-09T08:14:23;44.53;;;31.83;;
57635;SDS011;43465;50.728;4.160;2023-04-09T08:16:48;44.05;;;31.90;;
57635;SDS011;43465;50.728;4.160;2023-04-09T08:19:15;45.63;;;33.38;;
57635;SDS011;43465;50.728;4.160;2023-04-09T08:21:41;43.17;;;31.67;;
57635;SDS011;43465;50.728;4.160;2023-04-09T08:24:11;42.78;;;31.08;;
57635;SDS011;43465;50.728;4.160;2023-04-09T08:26:37;46.30;;;31.35;;
57635;SDS011;43465;50.728;4.160;2023-04-09T08:29:03;47.08;;;33.25;;
57635;SDS011;43465;50.728;4.160;2023-04-09T08:31:29;43.67;;;31.08;;
57635;SDS011;43465;50.728;4.160;2023-04-09T08:33:55;44.30;;;32.33;;
57635;SDS011;43465;50.728;4.160;2023-04-09T08:36:20;43.55;;;30.50;;
57635;SDS011;43465;50.728;4.160;2023-04-09T08:38:46;39.80;;;30.85;;
57635;SDS011;43465;50.728;4.160;2023-04-09T08:41:19;41.75;;;30.45;;
57635;SDS011;43465;50.728;4.160;2023-04-09T08:43:50;44.30;;;29.92;;
57635;SDS011;43465;50.728;4.160;2023-04-09T08:46:20;37.95;;;29.27;;
57635;SDS011;43465;50.728;4.160;2023-04-09T08:48:47;36.78;;;27.70;;
57635;SDS011;43465;50.728;4.160;2023-04-09T08:51:21;37.17;;;27.65;;
57635;SDS011;43465;50.728;4.160;2023-04-09T08:53:48;35.65;;;27.67;;
57635;SDS011;43465;50.728;4.160;2023-04-09T08:56:21;38.45;;;28.92;;
57635;SDS011;43465;50.728;4.160;2023-04-09T08:58:50;38.67;;;28.23;;
57635;SDS011;43465;50.728;4.160;2023-04-09T09:01:28;40.40;;;27.65;;
57635;SDS011;43465;50.728;4.160;2023-04-09T09:04:05;37.55;;;28.38;;
57635;SDS011;43465;50.728;4.160;2023-04-09T09:06:35;34.13;;;27.17;;
57635;SDS011;43465;50.728;4.160;2023-04-09T09:09:03;37.40;;;28.42;;
57635;SDS011;43465;50.728;4.160;2023-04-09T09:11:35;37.30;;;28.20;;
57635;SDS011;43465;50.728;4.160;2023-04-09T09:14:04;36.75;;;28.45;;
57635;SDS011;43465;50.728;4.160;2023-04-09T09:16:32;37.50;;;28.50;;
57635;SDS011;43465;50.728;4.160;2023-04-09T09:19:07;36.38;;;29.23;;
57635;SDS011;43465;50.728;4.160;2023-04-09T09:21:34;37.50;;;29.30;;
57635;SDS011;43465;50.728;4.160;2023-04-09T09:24:00;37.33;;;28.48;;
57635;SDS011;43465;50.728;4.160;2023-04-09T09:26:27;41.47;;;28.80;;
57635;SDS011;43465;50.728;4.160;2023-04-09T09:28:54;36.50;;;28.88;;
57635;SDS011;43465;50.728;4.160;2023-04-09T09:31:23;37.17;;;29.23;;
57635;SDS011;43465;50.728;4.160;2023-04-09T09:33:49;38.00;;;28.27;;
57635;SDS011;43465;50.728;4.160;2023-04-09T09:36:15;37.13;;;29.05;;
57635;SDS011;43465;50.728;4.160;2023-04-09T09:38:56;38.58;;;28.65;;
57635;SDS011;43465;50.728;4.160;2023-04-09T09:41:22;36.10;;;26.95;;
57635;SDS011;43465;50.728;4.160;2023-04-09T09:43:50;40.17;;;29.48;;
57635;SDS011;43465;50.728;4.160;2023-04-09T09:46:16;38.25;;;28.27;;
57635;SDS011;43465;50.728;4.160;2023-04-09T09:48:42;38.53;;;28.92;;
57635;SDS011;43465;50.728;4.160;2023-04-09T09:51:12;36.33;;;28.50;;
57635;SDS011;43465;50.728;4.160;2023-04-09T09:53:39;39.25;;;28.77;;
57635;SDS011;43465;50.728;4.160;2023-04-09T09:56:11;36.30;;;27.25;;
57635;SDS011;43465;50.728;4.160;2023-04-09T09:59:04;33.45;;;26.10;;
57635;SDS011;43465;50.728;4.160;2023-04-09T10:01:29;36.47;;;27.48;;
57635;SDS011;43465;50.728;4.160;2023-04-09T10:04:01;37.20;;;27.67;;
57635;SDS011;43465;50.728;4.160;2023-04-09T10:06:28;43.08;;;28.35;;
57635;SDS011;43465;50.728;4.160;2023-04-09T10:08:57;37.17;;;27.63;;
57635;SDS011;43465;50.728;4.160;2023-04-09T10:11:28;36.13;;;27.02;;
57635;SDS011;43465;50.728;4.160;2023-04-09T10:13:56;37.60;;;27.92;;
57635;SDS011;43465;50.728;4.160;2023-04-09T10:16:25;36.92;;;27.02;;
57635;SDS011;43465;50.728;4.160;2023-04-09T10:18:52;38.47;;;27.33;;
57635;SDS011;43465;50.728;4.160;2023-04-09T10:23:59;33.88;;;24.98;;
57635;SDS011;43465;50.728;4.160;2023-04-09T10:26:31;31.80;;;25.45;;
57635;SDS011;43465;50.728;4.160;2023-04-09T10:29:24;34.45;;;25.95;;
57635;SDS011;43465;50.728;4.160;2023-04-09T10:32:05;35.58;;;26.98;;
57635;SDS011;43465;50.728;4.160;2023-04-09T10:34:36;34.05;;;25.70;;
57635;SDS011;43465;50.728;4.160;2023-04-09T10:37:07;32.53;;;26.20;;
57635;SDS011;43465;50.728;4.160;2023-04-09T10:39:37;33.30;;;26.33;;
57635;SDS011;43465;50.728;4.160;2023-04-09T10:42:07;33.72;;;25.80;;
57635;SDS011;43465;50.728;4.160;2023-04-09T10:44:38;34.20;;;26.10;;
57635;SDS011;43465;50.728;4.160;2023-04-09T10:47:05;35.30;;;26.67;;
57635;SDS011;43465;50.728;4.160;2023-04-09T10:49:36;30.20;;;23.90;;
57635;SDS011;43465;50.728;4.160;2023-04-09T10:52:04;33.67;;;25.30;;
57635;SDS011;43465;50.728;4.160;2023-04-09T10:59:35;29.77;;;24.00;;
57635;SDS011;43465;50.728;4.160;2023-04-09T11:02:09;30.63;;;24.00;;
57635;SDS011;43465;50.728;4.160;2023-04-09T11:07:26;27.20;;;22.13;;
57635;SDS011;43465;50.728;4.160;2023-04-09T11:09:54;30.88;;;23.10;;
57635;SDS011;43465;50.728;4.160;2023-04-09T11:12:19;29.13;;;21.73;;
57635;SDS011;43465;50.728;4.160;2023-04-09T11:14:45;28.00;;;21.90;;
57635;SDS011;43465;50.728;4.160;2023-04-09T11:17:11;31.58;;;22.77;;
57635;SDS011;43465;50.728;4.160;2023-04-09T11:19:37;27.45;;;21.75;;
57635;SDS011;43465;50.728;4.160;2023-04-09T11:22:03;26.42;;;19.98;;
57635;SDS011;43465;50.728;4.160;2023-04-09T11:24:40;28.67;;;20.83;;
57635;SDS011;43465;50.728;4.160;2023-04-09T11:27:06;24.98;;;20.95;;
57635;SDS011;43465;50.728;4.160;2023-04-09T11:29:33;26.83;;;21.42;;
57635;SDS011;43465;50.728;4.160;2023-04-09T11:31:59;28.38;;;21.40;;
57635;SDS011;43465;50.728;4.160;2023-04-09T11:34:28;26.48;;;19.90;;
57635;SDS011;43465;50.728;4.160;2023-04-09T11:36:54;27.38;;;20.90;;
57635;SDS011;43465;50.728;4.160;2023-04-09T11:39:20;23.88;;;18.90;;
57635;SDS011;43465;50.728;4.160;2023-04-09T11:41:46;23.67;;;19.60;;
57635;SDS011;43465;50.728;4.160;2023-04-09T11:44:12;23.27;;;19.17;;
57635;SDS011;43465;50.728;4.160;2023-04-09T11:46:38;22.17;;;17.45;;
57635;SDS011;43465;50.728;4.160;2023-04-09T11:49:06;26.35;;;19.75;;
57635;SDS011;43465;50.728;4.160;2023-04-09T11:51:32;25.52;;;20.70;;
57635;SDS011;43465;50.728;4.160;2023-04-09T11:54:03;27.02;;;19.40;;
57635;SDS011;43465;50.728;4.160;2023-04-09T11:56:29;27.70;;;20.33;;
57635;SDS011;43465;50.728;4.160;2023-04-09T11:58:56;30.08;;;21.13;;
57635;SDS011;43465;50.728;4.160;2023-04-09T12:01:22;26.98;;;20.67;;
57635;SDS011;43465;50.728;4.160;2023-04-09T12:03:52;23.65;;;18.70;;
57635;SDS011;43465;50.728;4.160;2023-04-09T12:06:21;27.63;;;20.00;;
57635;SDS011;43465;50.728;4.160;2023-04-09T12:08:54;26.55;;;19.90;;
57635;SDS011;43465;50.728;4.160;2023-04-09T12:11:27;29.45;;;21.30;;
57635;SDS011;43465;50.728;4.160;2023-04-09T12:14:03;25.35;;;19.45;;
57635;SDS011;43465;50.728;4.160;2023-04-09T12:16:30;26.75;;;20.30;;
57635;SDS011;43465;50.728;4.160;2023-04-09T12:19:00;25.95;;;19.95;;
57635;SDS011;43465;50.728;4.160;2023-04-09T12:21:49;28.45;;;20.20;;
57635;SDS011;43465;50.728;4.160;2023-04-09T12:24:17;26.95;;;20.20;;
57635;SDS011;43465;50.728;4.160;2023-04-09T12:26:44;23.65;;;19.65;;
57635;SDS011;43465;50.728;4.160;2023-04-09T12:29:14;25.08;;;20.13;;
57635;SDS011;43465;50.728;4.160;2023-04-09T12:31:41;24.73;;;19.30;;
57635;SDS011;43465;50.728;4.160;2023-04-09T12:34:07;25.38;;;18.33;;
57635;SDS011;43465;50.728;4.160;2023-04-09T12:36:33;23.13;;;18.20;;
57635;SDS011;43465;50.728;4.160;2023-04-09T12:38:59;23.98;;;18.45;;
57635;SDS011;43465;50.728;4.160;2023-04-09T12:41:25;24.90;;;18.45;;
57635;SDS011;43465;50.728;4.160;2023-04-09T12:43:51;23.30;;;17.85;;
57635;SDS011;43465;50.728;4.160;2023-04-09T12:46:17;23.92;;;18.52;;
57635;SDS011;43465;50.728;4.160;2023-04-09T12:48:43;22.67;;;18.08;;
57635;SDS011;43465;50.728;4.160;2023-04-09T12:51:10;20.40;;;16.15;;
57635;SDS011;43465;50.728;4.160;2023-04-09T12:53:36;18.60;;;15.63;;
57635;SDS011;43465;50.728;4.160;2023-04-09T12:56:02;19.17;;;14.88;;
57635;SDS011;43465;50.728;4.160;2023-04-09T12:58:29;20.50;;;16.15;;
57635;SDS011;43465;50.728;4.160;2023-04-09T13:00:55;19.55;;;14.57;;
57635;SDS011;43465;50.728;4.160;2023-04-09T13:03:22;21.92;;;16.98;;
57635;SDS011;43465;50.728;4.160;2023-04-09T13:05:48;22.17;;;17.30;;
57635;SDS011;43465;50.728;4.160;2023-04-09T13:08:14;20.67;;;17.02;;
57635;SDS011;43465;50.728;4.160;2023-04-09T13:10:40;23.05;;;17.88;;
57635;SDS011;43465;50.728;4.160;2023-04-09T13:13:06;20.65;;;17.23;;
57635;SDS011;43465;50.728;4.160;2023-04-09T13:15:38;21.15;;;16.95;;
57635;SDS011;43465;50.728;4.160;2023-04-09T13:18:07;23.15;;;16.67;;
57635;SDS011;43465;50.728;4.160;2023-04-09T13:20:33;21.10;;;16.52;;
57635;SDS011;43465;50.728;4.160;2023-04-09T13:22:59;24.85;;;16.95;;
57635;SDS011;43465;50.728;4.160;2023-04-09T13:25:25;22.48;;;15.70;;
57635;SDS011;43465;50.728;4.160;2023-04-09T13:27:50;19.17;;;15.85;;
57635;SDS011;43465;50.728;4.160;2023-04-09T13:30:16;22.88;;;15.90;;
57635;SDS011;43465;50.728;4.160;2023-04-09T13:32:42;19.55;;;15.32;;
57635;SDS011;43465;50.728;4.160;2023-04-09T13:35:07;16.33;;;13.23;;
57635;SDS011;43465;50.728;4.160;2023-04-09T13:37:34;17.70;;;14.45;;
57635;SDS011;43465;50.728;4.160;2023-04-09T13:40:00;15.90;;;13.35;;
57635;SDS011;43465;50.728;4.160;2023-04-09T13:42:26;16.20;;;13.63;;
57635;SDS011;43465;50.728;4.160;2023-04-09T13:44:52;18.95;;;15.30;;
57635;SDS011;43465;50.728;4.160;2023-04-09T13:47:17;20.13;;;15.27;;
57635;SDS011;43465;50.728;4.160;2023-04-09T13:49:43;18.50;;;14.05;;
57635;SDS011;43465;50.728;4.160;2023-04-09T13:52:09;17.75;;;14.45;;
57635;SDS011;43465;50.728;4.160;2023-04-09T13:54:35;16.00;;;13.20;;
57635;SDS011;43465;50.728;4.160;2023-04-09T13:57:01;19.27;;;14.95;;
57635;SDS011;43465;50.728;4.160;2023-04-09T13:59:28;17.63;;;13.70;;
57635;SDS011;43465;50.728;4.160;2023-04-09T14:01:53;16.75;;;13.27;;
57635;SDS011;43465;50.728;4.160;2023-04-09T14:04:19;16.90;;;14.10;;
57635;SDS011;43465;50.728;4.160;2023-04-09T14:06:45;15.30;;;13.35;;
57635;SDS011;43465;50.728;4.160;2023-04-09T14:09:11;15.63;;;12.65;;
57635;SDS011;43465;50.728;4.160;2023-04-09T14:11:37;14.43;;;12.35;;
57635;SDS011;43465;50.728;4.160;2023-04-09T14:14:03;15.52;;;13.50;;
57635;SDS011;43465;50.728;4.160;2023-04-09T14:16:29;14.13;;;12.43;;
57635;SDS011;43465;50.728;4.160;2023-04-09T14:18:57;13.43;;;11.73;;
57635;SDS011;43465;50.728;4.160;2023-04-09T14:21:23;13.18;;;11.75;;
57635;SDS011;43465;50.728;4.160;2023-04-09T14:23:50;12.75;;;11.43;;
57635;SDS011;43465;50.728;4.160;2023-04-09T14:26:16;10.70;;;9.60;;
57635;SDS011;43465;50.728;4.160;2023-04-09T14:28:43;9.15;;;8.25;;
57635;SDS011;43465;50.728;4.160;2023-04-09T14:31:11;12.52;;;11.13;;
57635;SDS011;43465;50.728;4.160;2023-04-09T14:33:38;12.07;;;10.85;;
57635;SDS011;43465;50.728;4.160;2023-04-09T14:36:04;10.88;;;9.77;;
57635;SDS011;43465;50.728;4.160;2023-04-09T14:38:30;9.68;;;8.38;;
57635;SDS011;43465;50.728;4.160;2023-04-09T14:40:56;8.38;;;7.60;;
57635;SDS011;43465;50.728;4.160;2023-04-09T14:43:22;10.70;;;9.40;;